Data for 09/03/2015

Time Sea-Level Adjusted Pressure Absolute Pressure Temperature Relative Humidity Dew Point   
(mb) (inHg) (mb) (inHg) (C) (F) (%) (C) (F)
00:05 1013 29.91 842 24.86 16.7 62.1 35 1.1 34
00:10 1013 29.91 842 24.86 16.3 61.3 36 1.4 34.5
00:15 1013 29.91 842 24.86 16 60.8 37 1.4 34.5
00:20 1013 29.91 842 24.86 15.9 60.5 36 0.7 33.3
00:25 1013 29.91 842 24.86 16.1 61 37 1.7 35
00:30 1013 29.91 842 24.86 16.4 61.4 34 0.7 33.2
00:35 1013 29.91 842 24.86 16.2 61.2 34 0.5 32.9
00:40 1013 29.91 842 24.86 16.1 61 35 0.7 33.3
00:45 1013 29.91 842 24.86 16.1 60.9 36 1 33.7
00:50 1013 29.91 842 24.86 15.8 60.4 36 1 33.8
00:55 1013 29.91 842 24.86 15.5 59.9 36 0.7 33.3
01:00 1013 29.91 842 24.86 15.4 59.7 37 1 33.8
01:05 1013 29.91 842 24.86 15.1 59.1 38 1.1 33.9
01:10 1013 29.91 842 24.86 14.9 58.8 37 0.6 33
01:15 1013 29.91 842 24.86 15 59 37 0.4 32.6
01:20 1013 29.91 842 24.86 15.1 59.1 37 0.4 32.8
01:25 1013 29.91 842 24.86 15 59.1 37 0.6 33
01:30 1013 29.91 842 24.86 15 59.1 37 0.5 32.9
01:35 1013 29.91 842 24.86 14.9 58.9 37 0.5 32.8
01:40 1013 29.91 842 24.86 14.9 58.8 37 0.3 32.6
01:45 1013 29.91 842 24.86 14.9 58.9 37 0.3 32.5
01:50 1012 29.88 842 24.86 14.9 58.9 36 -0 31.9
01:55 1012 29.88 842 24.86 15 59 35 -0.1 31.8
02:00 1013 29.91 842 24.86 15.2 59.4 36 0.2 32.4
02:05 1013 29.91 842 24.86 15.2 59.4 37 0.6 33.1
02:10 1013 29.91 842 24.86 15.2 59.4 37 0.8 33.4
02:15 1013 29.91 842 24.86 15.3 59.6 37 0.9 33.6
02:20 1013 29.91 842 24.86 15.5 59.9 40 2 35.5
02:25 1013 29.91 842 24.86 15.6 60.1 42 2.8 37
02:30 1013 29.91 842 24.86 15.6 60 45 3.7 38.7
02:35 1013 29.91 842 24.86 15.4 59.8 46 4 39.2
02:40 1013 29.91 842 24.86 14.7 58.4 49 4.3 39.7
02:45 1013 29.91 842 24.86 13.6 56.5 50 3.4 38.1
02:50 1013 29.91 842 24.86 13.3 56 46 2 35.6
02:55 1013 29.91 842 24.86 13.7 56.7 44 1.9 35.4
03:00 1013 29.91 842 24.86 14.1 57.5 42 1.4 34.5
03:05 1013 29.91 842 24.86 14.6 58.3 40 1.3 34.3
03:10 1013 29.91 842 24.86 14.6 58.3 42 1.8 35.2
03:15 1013 29.91 842 24.86 14.3 57.8 44 2.4 36.4
03:20 1013 29.91 842 24.86 14 57.2 41 1 33.8
03:25 1013 29.91 842 24.86 14.5 58 41 1.4 34.6
03:30 1013 29.91 842 24.86 14.4 58 39 0.8 33.4
03:35 1012 29.88 842 24.86 15.2 59.3 33 -0.9 30.4
03:40 1012 29.88 841 24.83 16.5 61.7 31 -0.7 30.8
03:45 1012 29.88 841 24.83 17.2 63 30 -0.6 30.9
03:50 1012 29.88 841 24.83 17.4 63.3 29 -0.6 30.9
03:55 1013 29.91 842 24.86 17.5 63.5 29 -0.5 31
04:00 1013 29.91 842 24.86 17.5 63.4 30 -0.1 31.9
04:05 1013 29.91 842 24.86 16.6 61.9 38 2.3 36.1
04:10 1013 29.91 842 24.86 15.1 59.1 42 2.4 36.3
04:15 1013 29.91 842 24.86 14.4 58 44 2.5 36.5
04:20 1013 29.91 842 24.86 13.9 57.1 46 2.7 36.9
04:25 1013 29.91 842 24.86 13.6 56.5 48 2.9 37.1
04:30 1013 29.91 842 24.86 13.8 56.8 47 2.6 36.7
04:35 1013 29.91 842 24.86 13.8 56.8 48 2.9 37.3
04:40 1013 29.91 842 24.86 13.8 56.9 48 3.1 37.6
04:45 1013 29.91 842 24.86 13.6 56.5 50 3.4 38.1
04:50 1013 29.91 842 24.86 13.4 56.2 50 3.3 38
04:55 1013 29.91 842 24.86 13.3 56 51 3.4 38.1
05:00 1013 29.91 843 24.89 13.2 55.8 52 3.6 38.5
05:05 1014 29.94 843 24.89 12.9 55.3 53 3.7 38.7
05:10 1014 29.94 843 24.89 12.6 54.7 54 3.5 38.3
05:15 1014 29.94 843 24.89 12.4 54.3 55 3.6 38.6
05:20 1014 29.94 843 24.89 12.4 54.4 54 3.5 38.4
05:25 1014 29.94 843 24.89 12.5 54.4 55 3.7 38.7
05:30 1014 29.94 843 24.89 12.2 53.9 56 3.6 38.5
05:35 1014 29.94 843 24.89 12.2 53.9 56 3.7 38.6
05:40 1014 29.94 843 24.89 12.2 53.9 55 3.4 38.2
05:45 1014 29.94 843 24.89 12.1 53.8 56 3.6 38.5
05:50 1014 29.94 843 24.89 12.1 53.7 55 3.5 38.2
05:55 1014 29.94 843 24.89 12.1 53.7 57 3.8 38.8
06:00 1014 29.94 843 24.89 11.7 53.1 58 3.9 39
06:05 1014 29.94 843 24.89 11.6 52.9 59 3.9 39
06:10 1014 29.94 843 24.89 11.6 52.9 58 3.8 38.8
06:15 1014 29.94 843 24.89 11.6 52.9 59 4 39.1
06:20 1014 29.94 843 24.89 11.7 53.1 59 4.1 39.3
06:25 1014 29.94 843 24.89 11.5 52.6 60 4.1 39.4
06:30 1014 29.94 843 24.89 11.4 52.5 59 3.7 38.6
06:35 1014 29.94 843 24.89 11.6 52.9 59 4 39.2
06:40 1014 29.94 843 24.89 11.6 52.8 59 4 39.1
06:45 1014 29.94 844 24.92 11.8 53.2 55 3.2 37.7
06:50 1015 29.97 844 24.92 12.3 54.1 54 3.4 38.1
06:55 1015 29.97 844 24.92 12.5 54.4 54 3.5 38.4
07:00 1015 29.97 844 24.92 12.5 54.5 54 3.5 38.3
07:05 1015 29.97 844 24.92 12.6 54.7 54 3.6 38.6
07:10 1015 29.97 844 24.92 12.6 54.6 56 4.2 39.5
07:15 1015 29.97 844 24.92 12.4 54.3 57 4.2 39.5
07:20 1015 29.97 844 24.92 12.4 54.3 58 4.5 40.1
07:25 1015 29.97 844 24.92 12.4 54.3 57 4.2 39.5
07:30 1015 29.97 844 24.92 12.5 54.5 55 3.9 39
07:35 1015 29.97 844 24.92 12.9 55.1 54 3.9 39
07:40 1015 29.97 844 24.92 13.6 56.4 52 3.9 39
07:45 1015 29.97 844 24.92 14.2 57.5 49 3.6 38.5
07:50 1015 29.97 844 24.92 14.2 57.6 50 3.9 39
07:55 1015 29.97 844 24.92 14 57.2 48 3.3 37.9
08:00 1015 29.97 844 24.92 14 57.2 51 4.1 39.3
08:05 1015 29.97 844 24.92 13.4 56.1 51 3.5 38.3
08:10 1015 29.97 844 24.92 14.2 57.6 48 3.3 38
08:15 1015 29.97 844 24.92 14.5 58.1 48 3.8 38.9
08:20 1015 29.97 844 24.92 14.2 57.5 50 3.9 39.1
08:25 1015 29.97 844 24.92 14 57.2 50 3.8 38.8
08:30 1015 29.97 844 24.92 13.9 57.1 50 3.8 38.9
08:35 1015 29.97 844 24.92 14.9 58.9 47 3.9 39
08:40 1015 29.97 844 24.92 14.8 58.7 48 4 39.2
08:45 1015 29.97 844 24.92 14.5 58.2 48 3.7 38.6
08:50 1015 29.97 844 24.92 14.9 58.9 46 3.6 38.4
08:55 1015 29.97 844 24.92 15.4 59.7 44 3.4 38.2
09:00 1015 29.97 844 24.92 15.8 60.4 43 3.3 37.9
09:05 1015 29.97 844 24.92 16.1 61 43 3.6 38.5
09:10 1015 29.97 844 24.92 15.8 60.4 44 3.5 38.3
09:15 1015 29.97 844 24.92 15.5 59.9 45 3.9 39
09:20 1015 29.97 844 24.92 16 60.9 42 3.2 37.7
09:25 1015 29.97 844 24.92 16.9 62.4 44 4.7 40.5
09:30 1015 29.97 844 24.92 16.1 60.9 44 4 39.1
09:35 1015 29.97 844 24.92 16 60.9 42 3.4 38.1
09:40 1015 29.97 844 24.92 17 62.6 41 3.7 38.6
09:45 1015 29.97 844 24.92 17 62.5 42 4.1 39.3
09:50 1015 29.97 844 24.92 16.9 62.4 41 3.7 38.6
09:55 1015 29.97 844 24.92 17.4 63.3 39 3.4 38.2
10:00 1015 29.97 844 24.92 17.8 64 38 3.5 38.3
10:05 1015 29.97 844 24.92 18 64.3 38 3.6 38.6
10:10 1015 29.97 844 24.92 18.6 65.4 35 2.9 37.2
10:15 1015 29.97 844 24.92 19 66.2 34 3.1 37.6
10:20 1015 29.97 844 24.92 19 66.1 34 3.1 37.6
10:25 1015 29.97 844 24.92 18.7 65.7 35 3 37.5
10:30 1015 29.97 844 24.92 18.5 65.3 36 3.2 37.8
10:35 1015 29.97 844 24.92 18.3 65 36 3 37.4
10:40 1015 29.97 844 24.92 19 66.1 34 3 37.4
10:45 1015 29.97 844 24.92 19.6 67.2 34 3.2 37.8
10:50 1015 29.97 844 24.92 19.8 67.6 33 3.3 37.9
10:55 1015 29.97 844 24.92 19.3 66.8 35 3.5 38.2
11:00 1015 29.97 844 24.92 19.5 67.1 34 3.5 38.3
11:05 1015 29.97 844 24.92 19.4 66.9 34 3.5 38.2
11:10 1015 29.97 844 24.92 19.9 67.9 33 3.4 38.2
11:15 1014 29.94 844 24.92 20.2 68.3 32 3.2 37.7
11:20 1014 29.94 844 24.92 19.2 66.6 33 2.8 37.1
11:25 1014 29.94 844 24.92 19.9 67.9 32 3 37.5
11:30 1015 29.97 844 24.92 20.1 68.1 33 3.3 37.9
11:35 1014 29.94 844 24.92 19.6 67.2 32 2.8 37
11:40 1014 29.94 844 24.92 19.8 67.6 33 3.1 37.5
11:45 1014 29.94 843 24.89 19.7 67.5 33 3.3 37.9
11:50 1014 29.94 843 24.89 20.6 69 32 3.4 38.2
11:55 1014 29.94 843 24.89 21.3 70.3 31 3.4 38.2
12:00 1014 29.94 843 24.89 21.7 71.1 29 3.3 38
12:05 1014 29.94 843 24.89 20.9 69.6 32 3.7 38.7
12:10 1014 29.94 843 24.89 20.3 68.6 32 3.4 38.1
12:15 1014 29.94 843 24.89 20.6 69.1 31 3.1 37.5
12:20 1014 29.94 843 24.89 20.9 69.5 31 3.5 38.3
12:25 1014 29.94 843 24.89 21.4 70.5 30 3.3 37.9
12:30 1014 29.94 843 24.89 21.7 71 30 3.7 38.6
12:35 1014 29.94 843 24.89 21.4 70.6 29 3.1 37.5
12:40 1013 29.91 843 24.89 21.4 70.6 31 3.6 38.5
12:45 1013 29.91 843 24.89 22.5 72.5 29 3.7 38.7
12:50 1013 29.91 843 24.89 22.1 71.7 31 4.4 39.9
12:55 1013 29.91 843 24.89 22.1 71.8 30 4.1 39.3
13:00 1013 29.91 843 24.89 23 73.5 30 4.5 40.2
13:05 1013 29.91 842 24.86 21.6 70.8 32 4.3 39.8
13:10 1013 29.91 842 24.86 22.3 72.2 30 4.3 39.8
13:15 1013 29.91 842 24.86 22.6 72.7 31 4.7 40.4
13:20 1013 29.91 842 24.86 22.2 71.9 31 4.5 40
13:25 1013 29.91 842 24.86 21.8 71.2 32 4.3 39.8
13:30 1013 29.91 842 24.86 21.7 71 33 4.7 40.5
13:35 1013 29.91 842 24.86 21.5 70.6 33 4.6 40.4
13:40 1013 29.91 842 24.86 22 71.7 30 3.8 38.8
13:45 1013 29.91 842 24.86 22.4 72.3 31 4.5 40
13:50 1013 29.91 842 24.86 22 71.6 31 4.2 39.5
13:55 1013 29.91 842 24.86 22.2 72 31 4.6 40.3
14:00 1013 29.91 842 24.86 22.7 72.8 30 4.3 39.8
14:05 1013 29.91 842 24.86 22.8 73.1 31 5.2 41.4
14:10 1013 29.91 842 24.86 22.3 72.1 30 4 39.3
14:15 1013 29.91 842 24.86 22.2 72 29 3.8 38.8
14:20 1013 29.91 842 24.86 22.9 73.2 29 4.1 39.4
14:25 1013 29.91 842 24.86 23 73.3 29 4.3 39.8
14:30 1013 29.91 842 24.86 22.7 72.9 29 3.7 38.7
14:35 1013 29.91 842 24.86 22.9 73.3 29 4.1 39.3
14:40 1013 29.91 842 24.86 23.2 73.7 28 4.1 39.5
14:45 1012 29.88 842 24.86 22.2 72 30 4.1 39.3
14:50 1012 29.88 842 24.86 23 73.5 28 3.8 38.9
14:55 1012 29.88 842 24.86 22.6 72.8 30 4.4 39.9
15:00 1012 29.88 842 24.86 22.1 71.8 31 4.2 39.5
15:05 1012 29.88 842 24.86 22.2 71.9 30 4.2 39.6
15:10 1012 29.88 842 24.86 22.6 72.7 29 3.9 39
15:15 1012 29.88 842 24.86 22.7 72.9 29 4.2 39.6
15:20 1012 29.88 842 24.86 22.1 71.8 31 4.5 40.1
15:25 1012 29.88 842 24.86 22.1 71.8 30 4 39.1
15:30 1012 29.88 842 24.86 22.6 72.7 30 4.2 39.6
15:35 1012 29.88 842 24.86 22.7 72.9 29 3.8 38.9
15:40 1012 29.88 842 24.86 22.7 72.9 29 4 39.2
15:45 1013 29.91 842 24.86 22.6 72.6 28 3.6 38.4
15:50 1012 29.88 842 24.86 22.3 72.1 30 4 39.1
15:55 1013 29.91 842 24.86 22.3 72.2 29 3.9 38.9
16:00 1013 29.91 842 24.86 22.1 71.8 30 4.2 39.5
16:05 1013 29.91 842 24.86 22 71.5 31 4.4 39.9
16:10 1013 29.91 842 24.86 21.4 70.5 30 3.3 37.9
16:15 1013 29.91 842 24.86 21.1 70 31 3.3 37.9
16:20 1013 29.91 842 24.86 20.8 69.5 30 2.8 37.1
16:25 1013 29.91 842 24.86 20.7 69.2 31 2.9 37.2
16:30 1013 29.91 842 24.86 20.6 69.1 31 3.1 37.6
16:35 1013 29.91 842 24.86 20.7 69.2 32 3.7 38.7
16:40 1013 29.91 842 24.86 20.7 69.2 32 3.7 38.6
16:45 1013 29.91 842 24.86 20.5 69 31 2.9 37.1
16:50 1013 29.91 842 24.86 20.6 69 30 2.7 36.8
16:55 1013 29.91 842 24.86 20.7 69.2 29 2.2 36
17:00 1013 29.91 842 24.86 20.8 69.4 30 2.7 36.9
17:05 1013 29.91 842 24.86 20.6 69.1 30 2.8 37
17:10 1013 29.91 842 24.86 20.5 68.8 30 2.2 36
17:15 1013 29.91 843 24.89 20.4 68.8 31 2.9 37.2
17:20 1013 29.91 843 24.89 20.3 68.6 31 2.7 36.8
17:25 1013 29.91 843 24.89 20.2 68.3 32 3.2 37.8
17:30 1014 29.94 843 24.89 19.6 67.2 34 3.4 38.2
17:35 1014 29.94 843 24.89 19.3 66.7 35 3.7 38.7
17:40 1014 29.94 843 24.89 18.8 65.9 37 3.8 38.9
17:45 1014 29.94 843 24.89 18.7 65.6 36 3.5 38.3
17:50 1014 29.94 843 24.89 18.6 65.4 37 3.6 38.4
17:55 1014 29.94 843 24.89 18.5 65.3 37 3.6 38.4
18:00 1014 29.94 843 24.89 18.4 65.1 38 3.9 39
18:05 1014 29.94 843 24.89 18.2 64.7 38 3.8 38.9
18:10 1014 29.94 843 24.89 18 64.4 38 3.5 38.4
18:15 1014 29.94 843 24.89 17.9 64.3 39 3.9 39
18:20 1014 29.94 843 24.89 18 64.4 38 3.5 38.2
18:25 1014 29.94 843 24.89 18 64.3 38 3.5 38.3
18:30 1014 29.94 843 24.89 17.9 64.2 38 3.4 38.1
18:35 1014 29.94 843 24.89 17.9 64.2 38 3.6 38.4
18:40 1014 29.94 843 24.89 17.8 64.1 39 3.7 38.7
18:45 1014 29.94 843 24.89 17.5 63.6 40 3.8 38.8
18:50 1014 29.94 843 24.89 17.3 63.1 41 3.9 39
18:55 1014 29.94 843 24.89 17 62.6 41 3.7 38.6
19:00 1014 29.94 843 24.89 16.9 62.4 41 3.6 38.6
19:05 1014 29.94 843 24.89 16.9 62.4 41 3.5 38.3
19:10 1014 29.94 843 24.89 16.9 62.4 40 3.4 38.2
19:15 1014 29.94 843 24.89 17 62.5 40 3.5 38.3
19:20 1014 29.94 843 24.89 16.8 62.2 42 3.9 39
19:25 1014 29.94 843 24.89 16.4 61.5 44 4.1 39.4
19:30 1014 29.94 843 24.89 16 60.8 45 4.1 39.3
19:35 1014 29.94 843 24.89 15.7 60.2 46 4.1 39.5
19:40 1014 29.94 843 24.89 15.5 59.9 46 4 39.2
19:45 1014 29.94 844 24.92 15.3 59.6 47 4.2 39.6
19:50 1014 29.94 844 24.92 15.1 59.1 48 4.1 39.4
19:55 1014 29.94 844 24.92 15 58.9 47 3.9 39
20:00 1014 29.94 844 24.92 14.9 58.9 48 4.2 39.5
20:05 1015 29.97 844 24.92 14.7 58.5 49 4.3 39.8
20:10 1015 29.97 844 24.92 14.6 58.3 48 3.7 38.7
20:15 1015 29.97 844 24.92 14.7 58.5 48 3.8 38.8
20:20 1015 29.97 844 24.92 14.7 58.4 48 3.8 38.9
20:25 1015 29.97 844 24.92 14.6 58.3 48 3.9 38.9
20:30 1015 29.97 844 24.92 14.5 58.1 49 3.9 39
20:35 1016 30 845 24.95 14.4 57.9 49 4 39.2
20:40 1016 30 845 24.95 14.2 57.5 51 4.4 39.8
20:45 1016 30 845 24.95 13.9 56.9 53 4.6 40.3
20:50 1015 29.97 845 24.95 13.5 56.2 55 4.7 40.4
20:55 1015 29.97 845 24.95 13.2 55.7 57 4.8 40.7
21:00 1015 29.97 845 24.95 13 55.5 57 4.9 40.8
21:05 1015 29.97 845 24.95 12.8 55.1 59 5.1 41.2
21:10 1015 29.97 845 24.95 12.7 54.9 60 5.2 41.3
21:15 1015 29.97 845 24.95 12.4 54.4 61 5.1 41.2
21:20 1015 29.97 844 24.92 12.3 54.2 61 5.1 41.2
21:25 1015 29.97 845 24.95 12.3 54.1 62 5.3 41.5
21:30 1016 30 845 24.95 12.2 54 63 5.4 41.8
21:35 1016 30 845 24.95 12.1 53.8 64 5.5 42
21:40 1016 30 846 24.98 12 53.7 64 5.6 42.1
21:45 1016 30 846 24.98 12 53.6 67 6.1 43
21:50 1016 30 846 24.98 11.8 53.2 70 6.6 43.8
21:55 1016 30 846 24.98 11.6 52.8 72 6.7 44
22:00 1016 30 846 24.98 11.5 52.8 73 6.8 44.3
22:05 1016 30 846 24.98 11.5 52.7 74 7 44.6
22:10 1017 30.03 846 24.98 11.4 52.4 76 7.3 45.2
22:15 1017 30.03 846 24.98 11.2 52.2 75 6.9 44.4
22:20 1016 30 846 24.98 11.3 52.3 75 6.9 44.5
22:25 1016 30 846 24.98 11.1 51.9 77 7.2 45
22:30 1016 30 846 24.98 10.9 51.6 78 7.2 45
22:35 1016 30 846 24.98 10.8 51.4 78 7.1 44.7
22:40 1016 30 846 24.98 10.6 51.1 78 7 44.7
22:45 1016 30 846 24.98 10.5 50.9 78 6.9 44.4
22:50 1016 30 846 24.98 10.5 51 78 6.9 44.5
22:55 1017 30.03 846 24.98 10.4 50.8 80 7.1 44.7
23:00 1016 30 846 24.98 10.5 50.8 78 6.8 44.3
23:05 1016 30 846 24.98 10.5 51 79 7.1 44.9
23:10 1016 30 846 24.98 10.5 50.9 79 7 44.6
23:15 1016 30 845 24.95 10.5 50.9 80 7.3 45.1
23:20 1016 30 845 24.95 10.3 50.5 80 7 44.5
23:25 1016 30 845 24.95 10.3 50.5 80 6.9 44.4
23:30 1016 30 845 24.95 10.3 50.5 78 6.7 44
23:35 1016 30 845 24.95 10.3 50.5 79 6.8 44.2
23:40 1016 30 845 24.95 10.4 50.7 78 6.8 44.2
23:45 1016 30 845 24.95 10.4 50.8 78 6.8 44.2
23:50 1016 30 845 24.95 10.3 50.5 77 6.5 43.7
23:55 1016 30 845 24.95 10.2 50.3 77 6.4 43.5
24:00 1016 30 845 24.95 10 50 79 6.6 43.9